createdAt,value
2018-03-26T00:01:09.169Z,28.70
2018-03-26T00:06:14.115Z,25.70
2018-03-26T00:11:19.222Z,27.10
2018-03-26T00:16:23.426Z,26.90
2018-03-26T00:21:27.800Z,27.70
2018-03-26T00:26:32.174Z,27.40
2018-03-26T00:31:36.844Z,29.50
2018-03-26T00:36:41.260Z,29.80
2018-03-26T00:41:46.021Z,28.90
2018-03-26T00:46:49.643Z,30.53
2018-03-26T00:51:54.500Z,29.87
2018-03-26T00:56:59.233Z,31.63
2018-03-26T01:02:03.625Z,32.07
2018-03-26T01:07:07.392Z,31.67
2018-03-26T01:12:12.424Z,32.80
2018-03-26T01:17:17.915Z,30.37
2018-03-26T01:22:22.326Z,31.73
2018-03-26T01:27:27.109Z,29.97
2018-03-26T01:32:32.200Z,30.00
2018-03-26T01:37:37.114Z,29.60
2018-03-26T01:42:41.305Z,29.23
2018-03-26T01:47:45.645Z,30.00
2018-03-26T01:52:50.126Z,31.00
2018-03-26T01:57:55.854Z,31.30
2018-03-26T02:03:01.000Z,30.77
2018-03-26T02:08:05.721Z,30.53
2018-03-26T02:13:10.171Z,31.63
2018-03-26T02:18:15.401Z,31.13
2018-03-26T02:23:19.717Z,32.67
2018-03-26T02:28:24.049Z,30.80
2018-03-26T02:33:28.434Z,33.07
2018-03-26T02:38:32.184Z,31.13
2018-03-26T02:43:36.357Z,31.27
2018-03-26T02:48:40.954Z,32.83
2018-03-26T02:53:46.574Z,30.40
2018-03-26T02:58:51.398Z,30.70
2018-03-26T03:03:55.114Z,31.83
2018-03-26T03:08:59.878Z,34.30
2018-03-26T03:14:03.086Z,32.90
2018-03-26T03:19:07.393Z,33.03
2018-03-26T03:24:11.465Z,33.27
2018-03-26T03:29:14.538Z,34.37
2018-03-26T03:34:18.928Z,32.93
2018-03-26T03:39:23.817Z,34.70
2018-03-26T03:44:28.391Z,34.73
2018-03-26T03:49:32.452Z,30.67
2018-03-26T03:54:36.569Z,32.60
2018-03-26T03:59:40.222Z,32.20
2018-03-26T04:04:43.621Z,31.00
2018-03-26T04:09:47.706Z,34.40
2018-03-26T04:14:53.046Z,32.87
2018-03-26T04:19:57.784Z,31.83
2018-03-26T04:25:02.677Z,33.40
2018-03-26T04:30:07.768Z,32.47
2018-03-26T04:35:11.896Z,34.20
2018-03-26T04:40:16.100Z,32.57
2018-03-26T04:45:20.040Z,33.03
2018-03-26T04:50:23.851Z,32.13
2018-03-26T04:55:28.476Z,33.57
2018-03-26T05:00:32.787Z,32.80
2018-03-26T05:05:38.711Z,34.20
2018-03-26T05:10:43.669Z,32.10
2018-03-26T05:15:48.498Z,33.33
2018-03-26T05:20:53.561Z,34.63
2018-03-26T05:25:58.359Z,32.50
2018-03-26T05:31:02.453Z,32.57
2018-03-26T05:36:04.052Z,32.97
2018-03-26T05:41:05.580Z,34.30
2018-03-26T05:46:07.133Z,34.57
2018-03-26T05:51:09.396Z,33.13
2018-03-26T05:56:11.052Z,34.03
2018-03-26T06:01:12.649Z,33.20
2018-03-26T06:06:14.196Z,33.70
2018-03-26T06:11:15.766Z,33.00
2018-03-26T06:16:17.333Z,32.83
2018-03-26T06:21:18.836Z,34.10
2018-03-26T06:26:21.139Z,33.97
2018-03-26T06:31:22.700Z,34.07
2018-03-26T06:36:27.233Z,33.20
2018-03-26T06:41:29.552Z,31.50
2018-03-26T06:46:31.050Z,33.33
2018-03-26T06:51:32.589Z,34.30
2018-03-26T06:56:34.340Z,35.20
2018-03-26T07:01:35.930Z,34.47
2018-03-26T07:06:37.542Z,33.60
2018-03-26T07:11:39.833Z,31.90
2018-03-26T07:16:41.402Z,31.60
2018-03-26T07:21:42.945Z,30.17
2018-03-26T07:26:44.524Z,30.27
2018-03-26T07:31:46.071Z,32.53
2018-03-26T07:36:47.659Z,33.83
2018-03-26T07:41:49.169Z,29.17
2018-03-26T07:46:50.688Z,31.70
2018-03-26T07:51:52.438Z,30.07
2018-03-26T07:56:54.011Z,29.23
2018-03-26T08:01:55.727Z,31.83
2018-03-26T08:06:58.029Z,30.47
2018-03-26T08:11:59.533Z,29.37
2018-03-26T08:17:01.147Z,32.60
2018-03-26T08:22:02.835Z,30.33
2018-03-26T08:27:05.146Z,31.20
2018-03-26T08:32:06.790Z,31.77
2018-03-26T08:37:09.056Z,33.47
2018-03-26T08:42:10.627Z,32.50
2018-03-26T08:47:12.085Z,32.37
2018-03-26T08:52:13.627Z,33.10
2018-03-26T08:57:15.213Z,36.20
2018-03-26T09:02:20.841Z,31.90
2018-03-26T09:07:26.892Z,35.63
2018-03-26T09:12:33.487Z,31.20
2018-03-26T09:17:43.369Z,32.97
2018-03-26T09:22:50.873Z,30.90
2018-03-26T09:28:03.344Z,31.17
2018-03-26T09:33:11.601Z,32.67
2018-03-26T09:38:18.343Z,42.10
2018-03-26T09:43:24.648Z,33.67
2018-03-26T09:48:31.466Z,32.00
2018-03-26T09:53:37.176Z,32.70
2018-03-26T09:58:43.373Z,33.57
2018-03-26T10:03:48.306Z,32.63
2018-03-26T10:08:55.917Z,32.33
2018-03-26T10:14:01.385Z,32.97
2018-03-26T10:19:08.477Z,35.67
2018-03-26T10:24:15.114Z,37.07
2018-03-26T10:29:19.836Z,36.30
2018-03-26T10:34:30.890Z,39.73
2018-03-26T10:39:35.660Z,39.53
2018-03-26T10:44:43.772Z,41.43
2018-03-26T10:49:47.158Z,39.63
2018-03-26T10:54:51.694Z,43.03
2018-03-26T10:59:57.597Z,45.00
2018-03-26T11:05:04.395Z,42.60
2018-03-26T11:10:08.400Z,44.53
2018-03-26T11:15:13.032Z,43.00
2018-03-26T11:20:16.160Z,43.83
2018-03-26T11:25:21.044Z,40.20
2018-03-26T11:30:26.819Z,39.00
2018-03-26T11:35:28.484Z,44.43
2018-03-26T11:40:33.095Z,41.63
2018-03-26T11:45:37.830Z,42.43
2018-03-26T11:50:41.441Z,37.73
2018-03-26T11:55:46.727Z,40.00
2018-03-26T12:00:56.738Z,40.37
2018-03-26T12:06:03.134Z,40.50
2018-03-26T12:11:09.862Z,38.40
2018-03-26T12:16:11.564Z,40.27
2018-03-26T12:21:16.252Z,32.00
2018-03-26T12:26:22.907Z,34.37
2018-03-26T12:31:27.614Z,33.93
2018-03-26T12:36:29.389Z,32.83
2018-03-26T12:41:30.918Z,35.60
2018-03-26T12:46:46.530Z,33.20
2018-03-26T12:52:07.198Z,33.73
2018-03-26T12:57:27.106Z,35.70
2018-03-26T13:02:29.897Z,38.63
2018-03-26T13:07:31.440Z,37.00
2018-03-26T13:12:33.025Z,35.73
2018-03-26T13:17:34.549Z,36.00
2018-03-26T13:22:36.890Z,36.90
2018-03-26T13:27:38.473Z,35.90
2018-03-26T13:32:40.009Z,34.80
2018-03-26T13:37:42.385Z,36.20
2018-03-26T13:42:43.932Z,34.37
2018-03-26T13:47:45.503Z,35.77
2018-03-26T13:52:47.005Z,37.20
2018-03-26T13:57:49.052Z,39.10
2018-03-26T14:02:50.613Z,36.23
2018-03-26T14:07:52.890Z,37.60
2018-03-26T14:13:13.680Z,38.27
2018-03-26T14:18:15.253Z,39.13
2018-03-26T14:23:16.789Z,36.93
2018-03-26T14:28:18.388Z,38.80
2018-03-26T14:33:19.913Z,38.73
2018-03-26T14:38:21.569Z,36.80
2018-03-26T14:43:23.155Z,37.50
2018-03-26T14:48:24.708Z,37.80
2018-03-26T14:53:26.216Z,37.93
2018-03-26T14:58:27.753Z,38.57
2018-03-26T15:03:29.306Z,47.40
2018-03-26T15:08:30.871Z,38.20
2018-03-26T15:13:32.500Z,35.50
2018-03-26T15:18:34.058Z,33.53
2018-03-26T15:23:35.642Z,29.27
2018-03-26T15:28:37.239Z,29.77
2018-03-26T15:33:39.526Z,30.00
2018-03-26T15:38:41.863Z,30.43
2018-03-26T15:43:43.563Z,30.57
2018-03-26T15:48:45.166Z,30.77
2018-03-26T15:53:46.676Z,29.40
2018-03-26T15:58:48.222Z,31.63
2018-03-26T16:03:49.804Z,32.80
2018-03-26T16:08:51.476Z,32.17
2018-03-26T16:13:53.017Z,33.07
2018-03-26T16:18:54.568Z,36.40
2018-03-26T16:23:56.842Z,37.13
2018-03-26T16:28:59.140Z,33.67
2018-03-26T16:34:01.436Z,33.30
2018-03-26T16:39:03.028Z,33.30
2018-03-26T16:44:04.607Z,33.47
2018-03-26T16:49:06.145Z,32.40
2018-03-26T16:54:07.903Z,36.30
2018-03-26T16:59:10.288Z,38.33
2018-03-26T17:04:11.878Z,35.30
2018-03-26T17:09:13.513Z,36.30
2018-03-26T17:14:15.081Z,36.40
2018-03-26T17:19:16.633Z,37.00
2018-03-26T17:24:18.193Z,36.17
2018-03-26T17:29:19.767Z,34.60
2018-03-26T17:34:21.389Z,39.20
2018-03-26T17:39:22.962Z,38.57
2018-03-26T17:44:24.506Z,35.30
2018-03-26T17:49:26.831Z,36.37
2018-03-26T17:54:28.357Z,40.47
2018-03-26T17:59:30.737Z,38.93
2018-03-26T18:04:33.050Z,40.80
2018-03-26T18:09:34.618Z,40.80
2018-03-26T18:14:36.138Z,38.17
2018-03-26T18:19:37.693Z,38.30
2018-03-26T18:24:39.305Z,34.13
2018-03-26T18:29:41.611Z,24.67
2018-03-26T18:34:43.173Z,19.47
2018-03-26T18:39:45.469Z,18.07
2018-03-26T18:44:47.025Z,13.40
2018-03-26T18:49:48.623Z,10.33
2018-03-26T18:54:50.205Z,11.53
2018-03-26T18:59:51.749Z,7.80
2018-03-26T19:04:53.585Z,13.40
2018-03-26T19:09:55.133Z,8.70
2018-03-26T19:14:57.511Z,7.97
2018-03-26T19:19:59.068Z,7.10
2018-03-26T19:25:00.676Z,6.90
2018-03-26T19:30:02.263Z,7.10
2018-03-26T19:35:03.792Z,7.03
2018-03-26T19:40:05.348Z,7.50
2018-03-26T19:45:06.991Z,7.67
2018-03-26T19:50:08.555Z,6.93
2018-03-26T19:55:10.039Z,7.37
2018-03-26T20:00:11.566Z,7.40
2018-03-26T20:05:13.976Z,8.80
2018-03-26T20:10:15.547Z,6.40
2018-03-26T20:15:24.252Z,8.83
2018-03-26T20:20:32.719Z,8.30
2018-03-26T20:25:34.312Z,7.30
2018-03-26T20:30:36.009Z,6.40
2018-03-26T20:35:37.598Z,8.70
2018-03-26T20:40:40.056Z,8.60
2018-03-26T20:45:41.760Z,7.67
2018-03-26T20:50:44.103Z,8.20
2018-03-26T20:55:45.713Z,7.23
2018-03-26T21:00:48.071Z,7.40
2018-03-26T21:05:49.844Z,7.83
2018-03-26T21:10:51.433Z,9.47
2018-03-26T21:15:53.000Z,8.70
2018-03-26T21:20:54.505Z,8.53
2018-03-26T21:25:56.217Z,8.57
2018-03-26T21:30:57.779Z,7.07
2018-03-26T21:35:59.357Z,7.87
2018-03-26T21:41:00.958Z,7.13
2018-03-26T21:46:03.250Z,8.07
2018-03-26T21:51:05.637Z,7.53
2018-03-26T21:56:07.117Z,7.50
2018-03-26T22:01:08.660Z,7.93
2018-03-26T22:06:10.882Z,8.20
2018-03-26T22:11:12.402Z,7.23
2018-03-26T22:16:14.640Z,6.40
2018-03-26T22:21:16.131Z,7.47
2018-03-26T22:26:17.634Z,7.30
2018-03-26T22:31:19.937Z,7.23
2018-03-26T22:36:21.409Z,7.73
2018-03-26T22:41:22.946Z,7.87
2018-03-26T22:46:25.413Z,8.37
2018-03-26T22:51:26.930Z,8.27
2018-03-26T22:56:28.444Z,8.13
2018-03-26T23:01:30.074Z,8.70
2018-03-26T23:06:31.577Z,7.87
2018-03-26T23:11:33.081Z,9.60
2018-03-26T23:16:35.356Z,8.07
2018-03-26T23:21:37.639Z,9.33
2018-03-26T23:26:39.922Z,8.67
2018-03-26T23:31:41.461Z,8.20
2018-03-26T23:36:43.041Z,9.37
2018-03-26T23:41:44.733Z,9.07
2018-03-26T23:46:47.072Z,8.70
2018-03-26T23:51:48.607Z,8.20
2018-03-26T23:56:50.254Z,8.50
